createdAt,value
2017-09-07T00:00:01.186Z,21.78
2017-09-07T00:01:11.528Z,21.74
2017-09-07T00:02:21.612Z,21.76
2017-09-07T00:03:31.946Z,21.7
2017-09-07T00:04:41.981Z,21.73
2017-09-07T00:05:52.319Z,21.7
2017-09-07T00:07:02.695Z,21.73
2017-09-07T00:08:13.035Z,21.64
2017-09-07T00:09:22.742Z,21.68
2017-09-07T00:10:33.087Z,21.62
2017-09-07T00:11:42.799Z,21.59
2017-09-07T00:12:53.140Z,21.66
2017-09-07T00:14:03.481Z,21.51
2017-09-07T00:15:13.815Z,21.56
2017-09-07T00:16:24.163Z,21.55
2017-09-07T00:17:34.515Z,21.58
2017-09-07T00:18:44.850Z,21.58
2017-09-07T00:19:55.236Z,21.53
2017-09-07T00:21:06.685Z,21.52
2017-09-07T00:22:17.024Z,21.45
2017-09-07T00:23:27.382Z,21.46
2017-09-07T00:24:37.410Z,21.31
2017-09-07T00:25:47.788Z,21.31
2017-09-07T00:26:58.133Z,21.31
2017-09-07T00:28:08.471Z,21.25
2017-09-07T00:29:18.826Z,21.21
2017-09-07T00:30:28.848Z,21.16
2017-09-07T00:31:39.233Z,21.15
2017-09-07T00:32:49.251Z,21.11
2017-09-07T00:33:59.277Z,21.11
2017-09-07T00:35:09.630Z,21.11
2017-09-07T00:36:19.996Z,21.06
2017-09-07T00:37:30.079Z,21.08
2017-09-07T00:38:40.104Z,21.12
2017-09-07T00:39:50.463Z,21.06
2017-09-07T00:41:00.486Z,21
2017-09-07T00:42:10.822Z,21.11
2017-09-07T00:43:20.896Z,21.11
2017-09-07T00:44:30.919Z,21.06
2017-09-07T00:45:41.256Z,21.04
2017-09-07T00:46:51.284Z,21
2017-09-07T00:48:01.306Z,21.09
2017-09-07T00:49:11.705Z,21.06
2017-09-07T00:50:22.039Z,21.01
2017-09-07T00:51:32.399Z,21.01
2017-09-07T00:52:42.425Z,20.96
2017-09-07T00:53:52.759Z,20.9
2017-09-07T00:55:03.256Z,20.9
2017-09-07T00:56:13.646Z,20.83
2017-09-07T00:57:24.000Z,20.86
2017-09-07T00:58:34.347Z,20.86
2017-09-07T00:59:44.677Z,20.82
2017-09-07T01:00:55.013Z,20.78
2017-09-07T01:02:05.341Z,20.75
2017-09-07T01:03:15.728Z,20.79
2017-09-07T01:04:26.065Z,20.75
2017-09-07T01:05:36.101Z,20.67
2017-09-07T01:06:46.446Z,20.66
2017-09-07T01:07:56.807Z,20.53
2017-09-07T01:09:07.150Z,20.53
2017-09-07T01:10:18.060Z,20.54
2017-09-07T01:11:28.413Z,20.49
2017-09-07T01:12:38.815Z,20.4
2017-09-07T01:13:49.177Z,20.35
2017-09-07T01:14:59.209Z,20.37
2017-09-07T01:16:09.552Z,20.3
2017-09-07T01:17:19.593Z,20.29
2017-09-07T01:18:29.974Z,20.3
2017-09-07T01:19:40.004Z,20.22
2017-09-07T01:20:50.353Z,20.19
2017-09-07T01:22:00.374Z,20.25
2017-09-07T01:23:10.716Z,20.26
2017-09-07T01:24:21.309Z,20.22
2017-09-07T01:25:31.657Z,20.27
2017-09-07T01:26:41.362Z,20.22
2017-09-07T01:27:51.710Z,20.19
2017-09-07T01:29:02.060Z,20.16
2017-09-07T01:30:12.467Z,20.05
2017-09-07T01:31:22.812Z,20.12
2017-09-07T01:32:33.145Z,20.08
2017-09-07T01:33:44.032Z,20.05
2017-09-07T01:34:54.388Z,20.02
2017-09-07T01:36:04.727Z,20.08
2017-09-07T01:37:16.816Z,20.02
2017-09-07T01:38:26.861Z,20.02
2017-09-07T01:39:37.199Z,20.04
2017-09-07T01:40:47.229Z,20.05
2017-09-07T01:41:56.936Z,20.08
2017-09-07T01:43:06.985Z,20.1
2017-09-07T01:44:16.696Z,20.05
2017-09-07T01:45:27.027Z,20.02
2017-09-07T01:46:37.353Z,20.01
2017-09-07T01:47:47.694Z,20.01
2017-09-07T01:48:57.761Z,20.05
2017-09-07T01:50:08.125Z,20
2017-09-07T01:51:18.479Z,20.01
2017-09-07T01:52:28.865Z,20.02
2017-09-07T01:53:39.257Z,20.04
2017-09-07T01:54:49.298Z,19.98
2017-09-07T01:55:59.787Z,20.05
2017-09-07T01:57:10.138Z,20
2017-09-07T01:58:20.161Z,19.93
2017-09-07T01:59:30.245Z,19.9
2017-09-07T02:00:40.270Z,19.86
2017-09-07T02:01:50.297Z,19.87
2017-09-07T02:03:00.655Z,19.82
2017-09-07T02:04:10.685Z,19.64
2017-09-07T02:05:21.045Z,19.61
2017-09-07T02:06:31.392Z,19.65
2017-09-07T02:07:41.732Z,19.67
2017-09-07T02:08:51.758Z,19.65
2017-09-07T02:10:02.107Z,19.7
2017-09-07T02:11:12.138Z,19.55
2017-09-07T02:12:22.169Z,19.53
2017-09-07T02:13:32.525Z,19.56
2017-09-07T02:14:42.860Z,19.55
2017-09-07T02:15:53.206Z,19.53
2017-09-07T02:17:03.304Z,19.46
2017-09-07T02:18:13.658Z,19.49
2017-09-07T02:19:24.050Z,19.43
2017-09-07T02:20:34.405Z,19.4
2017-09-07T02:21:44.429Z,19.45
2017-09-07T02:22:54.832Z,19.45
2017-09-07T02:24:05.164Z,19.32
2017-09-07T02:25:15.197Z,19.34
2017-09-07T02:26:25.227Z,19.32
2017-09-07T02:27:35.270Z,19.45
2017-09-07T02:28:46.502Z,19.37
2017-09-07T02:29:56.855Z,19.34
2017-09-07T02:31:07.198Z,19.35
2017-09-07T02:32:17.316Z,19.27
2017-09-07T02:33:27.654Z,19.25
2017-09-07T02:34:38.297Z,19.2
2017-09-07T02:35:48.326Z,19.27
2017-09-07T02:36:58.670Z,19.28
2017-09-07T02:38:08.714Z,19.25
2017-09-07T02:39:18.742Z,19.25
2017-09-07T02:40:29.123Z,19.24
2017-09-07T02:41:39.475Z,19.24
2017-09-07T02:42:49.501Z,19.19
2017-09-07T02:43:59.514Z,19.28
2017-09-07T02:45:09.901Z,19.2
2017-09-07T02:46:20.242Z,19.23
2017-09-07T02:47:29.949Z,19.23
2017-09-07T02:48:40.306Z,19.12
2017-09-07T02:49:50.653Z,19.19
2017-09-07T02:51:01.149Z,19.19
2017-09-07T02:52:11.557Z,19.05
2017-09-07T02:53:21.897Z,19.13
2017-09-07T02:54:31.925Z,19.1
2017-09-07T02:55:42.267Z,19.09
2017-09-07T02:56:52.598Z,19.07
2017-09-07T02:58:02.310Z,18.94
2017-09-07T02:59:12.350Z,18.97
2017-09-07T03:00:22.382Z,19.06
2017-09-07T03:01:32.725Z,19
2017-09-07T03:33:32.294Z,16.49
2017-09-07T03:34:42.625Z,16.45
2017-09-07T03:35:52.956Z,16.49
2017-09-07T03:37:03.279Z,16.48
2017-09-07T03:38:13.294Z,16.58
2017-09-07T03:39:23.359Z,16.57
2017-09-07T03:40:33.380Z,16.7
2017-09-07T03:41:43.402Z,16.88
2017-09-07T03:42:53.755Z,16.88
2017-09-07T03:44:04.090Z,17.13
2017-09-07T03:45:13.844Z,17.27
2017-09-07T03:46:24.184Z,17.31
2017-09-07T03:47:34.533Z,17.45
2017-09-07T03:48:44.865Z,17.55
2017-09-07T03:49:54.881Z,17.68
2017-09-07T03:51:07.053Z,17.79
2017-09-07T03:52:17.392Z,17.86
2017-09-07T03:53:27.739Z,17.99
2017-09-07T03:54:37.746Z,18.06
2017-09-07T03:55:50.367Z,18.16
2017-09-07T03:57:00.473Z,18.23
2017-09-07T03:58:10.858Z,18.14
2017-09-07T03:59:21.197Z,18.31
2017-09-07T04:00:31.545Z,18.35
2017-09-07T04:01:41.900Z,18.42
2017-09-07T04:02:52.297Z,18.45
2017-09-07T04:04:02.638Z,18.45
2017-09-07T04:05:12.661Z,18.54
2017-09-07T04:06:23.010Z,18.6
2017-09-07T04:07:33.351Z,18.59
2017-09-07T04:08:43.436Z,18.63
2017-09-07T04:09:53.163Z,18.71
2017-09-07T04:11:03.535Z,18.69
2017-09-07T04:12:13.862Z,18.81
2017-09-07T04:13:23.587Z,18.76
2017-09-07T04:14:33.993Z,18.82
2017-09-07T04:15:44.355Z,18.75
2017-09-07T04:16:54.727Z,18.86
2017-09-07T04:18:05.067Z,18.87
2017-09-07T04:19:15.397Z,18.86
2017-09-07T04:20:26.879Z,18.84
2017-09-07T04:21:37.262Z,18.89
2017-09-07T04:22:47.614Z,18.91
2017-09-07T04:23:57.952Z,18.91
2017-09-07T04:25:07.976Z,18.91
2017-09-07T04:26:18.331Z,18.87
2017-09-07T04:27:28.668Z,18.93
2017-09-07T04:28:38.693Z,18.94
2017-09-07T04:29:49.029Z,19.02
2017-09-07T04:30:59.370Z,18.97
2017-09-07T04:32:09.436Z,18.96
2017-09-07T04:33:19.814Z,19.09
2017-09-07T04:34:29.826Z,19.13
2017-09-07T04:35:39.857Z,19.16
2017-09-07T04:36:49.922Z,19.23
2017-09-07T04:37:59.986Z,19.28
2017-09-07T04:39:10.341Z,19.28
2017-09-07T04:40:20.368Z,19.42
2017-09-07T04:41:30.095Z,19.53
2017-09-07T04:42:40.138Z,19.68
2017-09-07T04:43:50.484Z,19.6
2017-09-07T04:45:00.199Z,19.74
2017-09-07T04:46:10.550Z,19.86
2017-09-07T04:47:20.885Z,19.97
2017-09-07T04:48:31.219Z,20
2017-09-07T04:49:41.303Z,20.04
2017-09-07T04:50:51.645Z,20.12
2017-09-07T04:52:01.991Z,20.25
2017-09-07T04:53:11.697Z,20.48
2017-09-07T04:54:21.724Z,20.68
2017-09-07T04:55:32.112Z,20.88
2017-09-07T04:56:42.137Z,21.16
2017-09-07T04:57:52.484Z,21.37
2017-09-07T04:59:02.842Z,21.48
2017-09-07T05:00:13.164Z,21.52
2017-09-07T05:01:22.885Z,21.64
2017-09-07T05:02:33.211Z,21.71
2017-09-07T05:03:43.239Z,21.78
2017-09-07T05:04:53.591Z,21.93
2017-09-07T05:06:03.932Z,22.07
2017-09-07T05:07:14.321Z,22.33
2017-09-07T05:08:24.378Z,22.55
2017-09-07T05:09:34.741Z,22.54
2017-09-07T05:10:45.084Z,22.6
2017-09-07T05:11:54.470Z,22.67
2017-09-07T05:13:04.489Z,22.89
2017-09-07T05:14:15.063Z,22.73
2017-09-07T05:15:25.396Z,22.57
2017-09-07T05:16:35.414Z,22.42
2017-09-07T05:17:45.759Z,22.31
2017-09-07T05:18:56.097Z,22.23
2017-09-07T05:20:06.436Z,22.15
2017-09-07T05:21:16.456Z,22.22
2017-09-07T05:22:26.478Z,22.18
2017-09-07T05:23:36.196Z,22.09
2017-09-07T05:24:46.298Z,22.16
2017-09-07T05:25:56.662Z,22.23
2017-09-07T05:27:06.691Z,22.22
2017-09-07T05:28:17.030Z,22.27
2017-09-07T05:29:27.061Z,22.29
2017-09-07T05:30:37.415Z,22.42
2017-09-07T05:31:47.751Z,22.45
2017-09-07T05:32:58.105Z,22.45
2017-09-07T05:34:08.454Z,22.45
2017-09-07T05:35:19.690Z,22.36
2017-09-07T05:36:30.044Z,22.27
2017-09-07T05:37:40.377Z,22.22
2017-09-07T05:38:50.423Z,22.24
2017-09-07T05:40:00.443Z,22.33
2017-09-07T05:41:11.025Z,22.22
2017-09-07T05:42:21.768Z,22.3
2017-09-07T05:43:32.104Z,22.34
2017-09-07T05:44:42.061Z,22.3
2017-09-07T05:45:52.420Z,22.41
2017-09-07T05:47:02.759Z,22.57
2017-09-07T05:48:42.268Z,22.81
2017-09-07T05:49:52.629Z,22.71
2017-09-07T05:51:02.975Z,22.73
2017-09-07T05:52:13.842Z,22.51
2017-09-07T05:53:23.889Z,22.42
2017-09-07T05:54:33.912Z,22.54
2017-09-07T05:55:44.266Z,22.57
2017-09-07T06:00:09.634Z,22.36
2017-09-07T06:01:19.669Z,22.11
2017-09-07T06:02:30.016Z,22.15
2017-09-07T06:03:40.393Z,21.97
2017-09-07T06:04:50.737Z,21.86
2017-09-07T06:06:01.083Z,21.76
2017-09-07T06:07:11.411Z,21.89
2017-09-07T06:08:20.813Z,21.82
2017-09-07T06:09:31.162Z,21.76
2017-09-07T06:10:41.504Z,21.68
2017-09-07T06:11:51.852Z,21.7
2017-09-07T06:13:02.183Z,21.64
2017-09-07T06:14:12.534Z,21.74
2017-09-07T06:15:22.862Z,21.8
2017-09-07T06:16:32.873Z,21.83
2017-09-07T06:17:43.269Z,21.96
2017-09-07T06:18:53.294Z,22.07
2017-09-07T06:20:03.323Z,22.08
2017-09-07T06:21:13.670Z,22.18
2017-09-07T06:28:15.731Z,22.45
2017-09-07T06:30:00.151Z,22.59
2017-09-07T06:31:22.418Z,22.54
2017-09-07T06:32:33.030Z,22.69
2017-09-07T06:33:43.111Z,22.7
2017-09-07T06:34:53.287Z,22.63
2017-09-07T06:36:03.775Z,22.67
2017-09-07T06:37:13.832Z,22.64
2017-09-07T06:38:23.848Z,22.71
2017-09-07T06:39:34.184Z,22.73
2017-09-07T06:40:44.531Z,22.82
2017-09-07T06:41:54.863Z,22.88
2017-09-07T06:43:05.216Z,22.92
2017-09-07T06:44:15.569Z,22.88
2017-09-07T06:45:25.959Z,22.89
2017-09-07T06:46:38.333Z,22.92
2017-09-07T06:47:48.353Z,22.94
2017-09-07T06:48:58.705Z,23.01
2017-09-07T06:50:09.085Z,22.92
2017-09-07T06:51:18.848Z,23.03
2017-09-07T06:52:29.194Z,23.07
2017-09-07T06:53:39.542Z,23.16
2017-09-07T06:54:49.565Z,23.21
2017-09-07T06:55:59.590Z,23.15
2017-09-07T06:57:09.976Z,23.21
2017-09-07T06:58:20.003Z,23.25
2017-09-07T06:59:29.711Z,23.15
2017-09-07T07:00:40.957Z,22.99
2017-09-07T07:01:51.307Z,22.86
2017-09-07T07:03:01.705Z,22.91
2017-09-07T07:04:11.727Z,22.88
2017-09-07T07:05:22.073Z,22.86
2017-09-07T07:06:32.112Z,22.88
2017-09-07T07:07:42.499Z,22.92
2017-09-07T07:08:52.897Z,23.06
2017-09-07T07:10:02.935Z,22.99
2017-09-07T07:11:13.269Z,23
2017-09-07T07:12:23.298Z,23.06
2017-09-07T07:13:33.666Z,23.04
2017-09-07T07:14:44.058Z,23
2017-09-07T07:15:54.080Z,22.91
2017-09-07T07:17:04.431Z,22.81
2017-09-07T07:18:14.783Z,22.75
2017-09-07T07:19:26.513Z,22.59
2017-09-07T07:20:36.888Z,22.64
2017-09-07T07:21:47.244Z,22.59
2017-09-07T07:22:57.591Z,22.55
2017-09-07T07:24:07.324Z,22.52
2017-09-07T07:25:17.664Z,22.49
2017-09-07T07:26:28.078Z,22.41
2017-09-07T07:27:38.434Z,22.29
2017-09-07T07:28:48.781Z,22.54
2017-09-07T07:29:59.114Z,22.7
2017-09-07T07:31:09.150Z,22.76
2017-09-07T07:32:19.485Z,22.92
2017-09-07T07:33:29.830Z,22.99
2017-09-07T07:34:40.188Z,23.09
2017-09-07T07:35:49.890Z,23.12
2017-09-07T07:37:00.232Z,23.26
2017-09-07T07:38:10.624Z,23.22
2017-09-07T07:39:20.960Z,23.29
2017-09-07T07:40:31.001Z,23.4
2017-09-07T07:41:42.686Z,23.37
2017-09-07T07:42:53.042Z,23.53
2017-09-07T07:44:03.400Z,23.52
2017-09-07T07:45:13.433Z,23.45
2017-09-07T07:46:23.786Z,23.56
2017-09-07T07:47:33.811Z,23.75
2017-09-07T07:48:44.564Z,23.81
2017-09-07T07:49:55.262Z,23.78
2017-09-07T07:51:05.614Z,23.97
2017-09-07T07:52:15.659Z,24.12
2017-09-07T07:53:26.272Z,24.03
2017-09-07T07:54:36.672Z,23.99
2017-09-07T07:55:47.106Z,24.11
2017-09-07T07:56:57.485Z,24
2017-09-07T07:58:07.973Z,24.22
2017-09-07T07:59:18.406Z,24.32
2017-09-07T08:00:28.789Z,24.55
2017-09-07T08:01:38.589Z,24.85
2017-09-07T08:02:48.990Z,24.8
2017-09-07T08:03:59.411Z,25.02
2017-09-07T08:05:09.809Z,25.15
2017-09-07T08:06:20.188Z,25.27
2017-09-07T08:07:30.657Z,25.24
2017-09-07T08:08:41.054Z,25.26
2017-09-07T08:09:51.437Z,25.15
2017-09-07T08:11:01.173Z,25.09
2017-09-07T08:12:11.573Z,24.94
2017-09-07T08:13:21.928Z,25.08
2017-09-07T08:14:32.290Z,25.33
2017-09-07T08:15:42.647Z,25.51
2017-09-07T08:16:52.683Z,25.52
2017-09-07T08:18:03.023Z,25.56
2017-09-07T08:19:13.375Z,25.39
2017-09-07T08:20:23.404Z,25.37
2017-09-07T08:21:33.761Z,25.19
2017-09-07T08:22:44.186Z,25.22
2017-09-07T08:23:54.532Z,25.27
2017-09-07T08:25:04.617Z,25.15
2017-09-07T08:26:14.941Z,25.02
2017-09-07T08:27:25.283Z,25.34
2017-09-07T08:28:35.626Z,25.63
2017-09-07T08:29:46.027Z,25.79
2017-09-07T08:30:56.059Z,25.62
2017-09-07T08:32:06.401Z,25.51
2017-09-07T08:33:16.460Z,25.24
2017-09-07T08:34:26.558Z,25.26
2017-09-07T08:35:36.897Z,25.49
2017-09-07T08:36:47.253Z,25.54
2017-09-07T08:37:57.599Z,25.71
2017-09-07T08:39:07.950Z,25.85
2017-09-07T08:40:18.036Z,25.93
2017-09-07T08:41:28.412Z,26
2017-09-07T08:42:38.768Z,26.16
2017-09-07T08:43:48.802Z,26.3
2017-09-07T08:44:59.158Z,26.2
2017-09-07T08:46:09.551Z,26.07
2017-09-07T08:47:19.583Z,26.11
2017-09-07T08:48:29.947Z,25.96
2017-09-07T08:49:40.316Z,25.85
2017-09-07T08:50:50.376Z,25.89
2017-09-07T08:52:00.468Z,26.16
2017-09-07T08:53:10.489Z,26.15
2017-09-07T08:54:20.874Z,26.27
2017-09-07T08:55:31.230Z,26.49
2017-09-07T08:56:41.268Z,26.47
2017-09-07T08:57:51.659Z,26.42
2017-09-07T08:59:02.030Z,26.34
2017-09-07T09:00:12.070Z,26.27
2017-09-07T09:01:22.640Z,26.19
2017-09-07T09:02:33.213Z,26.11
2017-09-07T09:03:43.624Z,26.11
2017-09-07T09:04:53.972Z,26.39
2017-09-07T09:06:05.996Z,26.22
2017-09-07T09:07:16.372Z,26.19
2017-09-07T09:08:26.765Z,26.47
2017-09-07T09:09:36.876Z,26.71
2017-09-07T09:10:47.230Z,26.63
2017-09-07T09:11:57.271Z,26.42
2017-09-07T09:13:07.327Z,26.44
2017-09-07T09:14:17.679Z,26.3
2017-09-07T09:15:28.283Z,26.3
2017-09-07T09:16:38.338Z,26.41
2017-09-07T09:17:48.365Z,26.68
2017-09-07T09:18:58.402Z,26.76
2017-09-07T09:20:08.433Z,26.93
2017-09-07T09:21:18.839Z,26.99
2017-09-07T09:22:29.179Z,26.99
2017-09-07T09:23:39.545Z,26.79
2017-09-07T09:24:49.894Z,26.45
2017-09-07T09:26:00.248Z,26.3
2017-09-07T09:27:10.679Z,26.27
2017-09-07T09:28:22.981Z,26.19
2017-09-07T09:29:33.332Z,26.04
2017-09-07T09:30:43.385Z,26.16
2017-09-07T09:31:53.434Z,26.22
2017-09-07T09:33:03.672Z,26.03
2017-09-07T09:34:13.692Z,25.99
2017-09-07T09:35:24.031Z,25.96
2017-09-07T09:36:36.447Z,26.01
2017-09-07T09:37:46.782Z,26.3
2017-09-07T09:38:57.166Z,26.41
2017-09-07T09:40:06.887Z,26.61
2017-09-07T09:41:16.933Z,26.81
2017-09-07T09:42:27.296Z,26.96
2017-09-07T09:43:37.347Z,27.08
2017-09-07T09:44:48.619Z,27.28
2017-09-07T09:46:00.599Z,27.76
2017-09-07T09:47:10.974Z,28.2
2017-09-07T09:48:22.883Z,28.64
2017-09-07T09:49:35.438Z,28.94
2017-09-07T09:50:45.796Z,29.15
2017-09-07T09:51:55.847Z,29.3
2017-09-07T09:53:05.894Z,29.43
2017-09-07T09:54:16.252Z,29.36
2017-09-07T09:55:29.662Z,28.82
2017-09-07T09:56:40.014Z,28.55
2017-09-07T09:57:50.345Z,28.41
2017-09-07T09:59:00.683Z,28.18
2017-09-07T10:00:10.467Z,27.98
2017-09-07T10:01:20.508Z,27.91
2017-09-07T10:02:30.921Z,27.76
2017-09-07T10:03:40.953Z,27.52
2017-09-07T10:04:50.968Z,27.31
2017-09-07T10:06:01.337Z,27.16
2017-09-07T10:07:11.379Z,27.19
2017-09-07T10:08:21.731Z,27.15
2017-09-07T10:09:32.091Z,27.08
2017-09-07T10:10:42.502Z,26.91
2017-09-07T10:11:52.866Z,26.96
2017-09-07T10:13:02.918Z,26.9
2017-09-07T10:14:12.707Z,26.79
2017-09-07T10:15:23.109Z,26.68
2017-09-07T10:16:33.474Z,26.61
2017-09-07T10:17:43.848Z,26.53
2017-09-07T10:18:53.888Z,26.52
2017-09-07T10:20:04.304Z,26.41
2017-09-07T10:21:14.361Z,26.34
2017-09-07T10:22:24.743Z,26.3
2017-09-07T10:23:35.121Z,26.12
2017-09-07T10:24:45.145Z,26
2017-09-07T10:25:55.234Z,26
2017-09-07T10:27:05.629Z,25.96
2017-09-07T10:28:15.337Z,25.96
2017-09-07T10:29:25.709Z,25.99
2017-09-07T10:30:35.747Z,25.97
2017-09-07T10:31:45.822Z,25.85
2017-09-07T10:32:56.169Z,25.82
2017-09-07T10:34:06.510Z,25.82
2017-09-07T10:35:16.854Z,25.79
2017-09-07T10:36:27.210Z,25.71
2017-09-07T10:37:37.786Z,25.54
2017-09-07T10:38:47.506Z,25.38
2017-09-07T10:39:57.877Z,25.12
2017-09-07T10:41:08.264Z,25.01
2017-09-07T10:42:18.616Z,24.89
2017-09-07T10:43:28.964Z,24.8
2017-09-07T10:44:39.323Z,24.7
2017-09-07T10:45:49.677Z,24.66
2017-09-07T10:46:59.710Z,24.69
2017-09-07T10:48:10.086Z,24.59
2017-09-07T10:49:20.447Z,24.48
2017-09-07T10:50:30.816Z,24.33
2017-09-07T10:51:41.174Z,24.33
2017-09-07T10:52:51.219Z,24.32
2017-09-07T10:54:03.403Z,24.34
2017-09-07T10:55:13.763Z,24.3
2017-09-07T10:56:24.117Z,24.34
2017-09-07T10:57:34.141Z,24.48
2017-09-07T10:58:44.176Z,24.74
2017-09-07T10:59:54.540Z,24.78
2017-09-07T11:01:04.629Z,25.02
2017-09-07T11:02:14.991Z,25.19
2017-09-07T11:03:25.378Z,25.56
2017-09-07T11:04:35.737Z,25.84
2017-09-07T11:05:46.126Z,26.35
2017-09-07T11:06:55.996Z,26.78
2017-09-07T11:08:06.354Z,27
2017-09-07T11:09:16.433Z,27.27
2017-09-07T11:10:26.786Z,27.51
2017-09-07T11:11:37.135Z,27.98
2017-09-07T11:12:47.552Z,28.27
2017-09-07T11:13:57.580Z,28.43
2017-09-07T11:15:07.930Z,28.64
2017-09-07T11:16:18.314Z,28.64
2017-09-07T11:17:28.369Z,28.35
2017-09-07T11:18:38.399Z,28.36
2017-09-07T11:19:48.750Z,28.36
2017-09-07T11:20:58.817Z,28.43
2017-09-07T11:22:08.855Z,28.64
2017-09-07T11:23:19.498Z,28.41
2017-09-07T11:24:29.900Z,28.39
2017-09-07T11:25:39.931Z,28.7
2017-09-07T11:26:50.290Z,28.8
2017-09-07T11:28:00.673Z,28.88
2017-09-07T11:29:11.034Z,28.82
2017-09-07T11:30:21.379Z,28.8
2017-09-07T11:31:31.718Z,28.78
2017-09-07T11:32:42.095Z,28.88
2017-09-07T11:33:52.123Z,28.88
2017-09-07T11:35:02.481Z,29.03
2017-09-07T11:36:12.507Z,29.42
2017-09-07T11:37:22.852Z,29.5
2017-09-07T11:38:32.893Z,29.57
2017-09-07T11:39:42.928Z,29.47
2017-09-07T11:40:53.273Z,29.4
2017-09-07T11:42:03.922Z,29.33
2017-09-07T11:43:14.322Z,29.52
2017-09-07T11:44:24.701Z,29.51
2017-09-07T11:45:34.746Z,29.45
2017-09-07T11:46:45.090Z,29.29
2017-09-07T11:47:56.903Z,29.28
2017-09-07T11:49:06.948Z,29.14
2017-09-07T11:50:17.302Z,29.03
2017-09-07T11:51:27.648Z,28.97
2017-09-07T11:52:38.013Z,29.1
2017-09-07T11:53:48.404Z,29.08
2017-09-07T11:54:58.760Z,28.98
2017-09-07T11:56:09.120Z,28.95
2017-09-07T11:57:19.466Z,28.91
2017-09-07T11:58:29.812Z,28.83
2017-09-07T11:59:39.920Z,28.7
2017-09-07T12:00:50.281Z,28.57
2017-09-07T12:02:00.627Z,28.42
2017-09-07T12:03:10.659Z,28.49
2017-09-07T12:04:20.698Z,28.51
2017-09-07T12:05:31.103Z,28.46
2017-09-07T12:06:41.082Z,28.45
2017-09-07T12:07:51.481Z,28.54
2017-09-07T12:09:01.850Z,28.86
2017-09-07T12:10:11.866Z,28.82
2017-09-07T12:11:22.209Z,28.73
2017-09-07T12:12:32.549Z,28.67
2017-09-07T12:13:42.586Z,28.6
2017-09-07T12:14:52.627Z,28.58
2017-09-07T12:16:02.979Z,28.46
2017-09-07T12:17:13.392Z,28.41
2017-09-07T12:18:23.118Z,28.41
2017-09-07T12:19:33.468Z,28.27
2017-09-07T12:20:43.178Z,28.27
2017-09-07T12:21:54.852Z,28.18
2017-09-07T12:23:05.049Z,28.17
2017-09-07T12:24:15.418Z,28.11
2017-09-07T12:25:25.805Z,28.2
2017-09-07T12:26:35.851Z,28.2
2017-09-07T12:27:46.954Z,28.2
2017-09-07T12:28:57.368Z,28.31
2017-09-07T12:30:07.400Z,28.14
2017-09-07T12:31:17.433Z,28.2
2017-09-07T12:32:27.138Z,28.18
2017-09-07T12:33:37.496Z,28.24
2017-09-07T12:34:47.874Z,28.23
2017-09-07T12:35:58.223Z,28.21
2017-09-07T12:37:08.594Z,28.21
2017-09-07T12:38:18.962Z,28.23
2017-09-07T12:39:29.000Z,28.03
2017-09-07T12:40:39.352Z,27.65
2017-09-07T12:41:49.703Z,27.31
2017-09-07T12:43:00.110Z,27.04
2017-09-07T12:44:10.160Z,26.89
2017-09-07T12:45:20.517Z,26.79
2017-09-07T12:46:30.919Z,26.71
2017-09-07T12:47:42.866Z,26.72
2017-09-07T12:48:53.232Z,26.79
2017-09-07T12:50:03.605Z,26.9
2017-09-07T12:51:15.713Z,26.96
2017-09-07T12:52:40.881Z,27.21
2017-09-07T12:53:51.240Z,27.26
2017-09-07T12:55:01.613Z,27.38
2017-09-07T12:56:11.649Z,27.27
2017-09-07T12:57:21.988Z,27.48
2017-09-07T12:58:32.418Z,27.24
2017-09-07T12:59:42.480Z,27.26
2017-09-07T13:00:52.213Z,27.34
2017-09-07T13:02:02.578Z,27.34
2017-09-07T13:03:12.950Z,27.12
2017-09-07T13:04:23.560Z,26.99
2017-09-07T13:05:33.927Z,26.81
2017-09-07T13:06:44.291Z,26.59
2017-09-07T13:07:54.639Z,26.72
2017-09-07T13:09:04.692Z,26.75
2017-09-07T13:10:15.033Z,26.82
2017-09-07T13:11:25.082Z,26.97
2017-09-07T13:12:35.427Z,27.09
2017-09-07T13:13:45.802Z,27.24
2017-09-07T13:14:55.836Z,27.41
2017-09-07T13:16:06.531Z,27.45
2017-09-07T13:17:16.887Z,27.52
2017-09-07T13:18:29.312Z,27.37
2017-09-07T13:19:39.676Z,27.42
2017-09-07T13:20:50.079Z,27.57
2017-09-07T13:22:00.513Z,27.46
2017-09-07T13:23:10.605Z,27.43
2017-09-07T13:24:21.013Z,27.46
2017-09-07T13:25:31.378Z,27.52
2017-09-07T13:26:41.415Z,27.62
2017-09-07T13:27:51.513Z,27.55
2017-09-07T13:29:01.263Z,27.69
2017-09-07T13:30:11.567Z,27.74
2017-09-07T13:31:21.925Z,27.71
2017-09-07T13:32:32.291Z,27.64
2017-09-07T13:33:42.688Z,27.59
2017-09-07T13:34:53.054Z,27.38
2017-09-07T13:36:03.434Z,27.3
2017-09-07T13:37:13.798Z,27.18
2017-09-07T13:38:23.906Z,27.23
2017-09-07T13:39:33.675Z,27.31
2017-09-07T13:40:43.728Z,27.31
2017-09-07T13:41:53.766Z,27.37
2017-09-07T13:43:04.117Z,27.33
2017-09-07T13:44:14.461Z,27.46
2017-09-07T13:45:26.222Z,27.36
2017-09-07T13:46:36.256Z,27.33
2017-09-07T13:47:46.288Z,27.28
2017-09-07T13:48:56.655Z,27.08
2017-09-07T13:50:07.022Z,26.97
2017-09-07T13:51:17.536Z,26.89
2017-09-07T13:52:27.905Z,26.74
2017-09-07T13:53:38.260Z,26.59
2017-09-07T13:54:48.313Z,26.64
2017-09-07T13:55:58.374Z,26.52
2017-09-07T13:57:08.782Z,26.44
2017-09-07T13:58:18.522Z,26.32
2017-09-07T13:59:28.894Z,26.22
2017-09-07T14:00:38.966Z,26.16
2017-09-07T14:01:49.314Z,26.2
2017-09-07T14:02:59.685Z,26.3
2017-09-07T14:04:10.057Z,26.42
2017-09-07T14:05:20.441Z,26.57
2017-09-07T14:06:32.430Z,26.54
2017-09-07T14:07:42.817Z,26.35
2017-09-07T14:08:53.385Z,26.15
2017-09-07T14:10:03.119Z,25.93
2017-09-07T14:11:13.494Z,25.67
2017-09-07T14:12:23.537Z,25.56
2017-09-07T14:13:33.888Z,25.45
2017-09-07T14:14:44.295Z,25.33
2017-09-07T14:15:54.021Z,25.22
2017-09-07T14:17:04.378Z,25.14
2017-09-07T14:18:14.818Z,25.02
2017-09-07T14:19:25.188Z,24.86
2017-09-07T14:20:35.595Z,24.8
2017-09-07T14:21:46.167Z,24.75
2017-09-07T14:22:56.519Z,24.71
2017-09-07T14:24:06.868Z,24.74
2017-09-07T14:25:17.222Z,24.67
2017-09-07T14:26:27.601Z,24.67
2017-09-07T14:27:37.943Z,24.74
2017-09-07T14:28:47.987Z,24.82
2017-09-07T14:29:58.347Z,25.01
2017-09-07T14:31:08.721Z,25.23
2017-09-07T14:32:19.089Z,25.37
2017-09-07T14:33:29.441Z,25.47
2017-09-07T14:34:39.806Z,25.49
2017-09-07T14:35:49.863Z,25.62
2017-09-07T14:36:59.896Z,25.59
2017-09-07T14:38:09.999Z,25.62
2017-09-07T14:39:20.029Z,25.64
2017-09-07T14:40:30.396Z,25.71
2017-09-07T14:41:40.802Z,25.74
2017-09-07T14:42:52.751Z,26
2017-09-07T14:44:02.800Z,26.19
2017-09-07T14:45:13.166Z,26.27
2017-09-07T14:46:23.206Z,26.59
2017-09-07T14:47:33.251Z,26.79
2017-09-07T14:48:43.605Z,27
2017-09-07T14:49:53.980Z,27.18
2017-09-07T14:51:04.356Z,27.36
2017-09-07T14:52:14.715Z,27.53
2017-09-07T14:53:25.089Z,27.52
2017-09-07T14:54:35.465Z,27.62
2017-09-07T14:55:45.880Z,27.52
2017-09-07T14:56:55.969Z,27.49
2017-09-07T14:58:06.414Z,27.64
2017-09-07T14:59:16.807Z,27.65
2017-09-07T15:00:26.842Z,27.66
2017-09-07T15:01:37.257Z,27.66
2017-09-07T15:02:47.312Z,27.64
2017-09-07T15:03:57.702Z,27.48
2017-09-07T15:05:08.067Z,27.21
2017-09-07T15:06:18.426Z,27.09
2017-09-07T15:07:28.507Z,27.05
2017-09-07T15:08:38.550Z,27.05
2017-09-07T15:09:48.575Z,27.12
2017-09-07T15:10:58.602Z,27.21
2017-09-07T15:12:08.988Z,27.28
2017-09-07T15:13:19.394Z,27.26
2017-09-07T15:14:29.423Z,27.23
2017-09-07T15:15:39.465Z,27.23
2017-09-07T15:16:49.821Z,27.28
2017-09-07T15:18:00.197Z,27.09
2017-09-07T15:19:10.300Z,27.12
2017-09-07T15:20:20.028Z,27.11
2017-09-07T15:21:29.760Z,26.97
2017-09-07T15:22:40.126Z,26.89
2017-09-07T15:23:50.504Z,26.69
2017-09-07T15:25:00.572Z,26.6
2017-09-07T15:26:10.621Z,26.64
2017-09-07T15:27:20.978Z,26.47
2017-09-07T15:28:31.330Z,26.45
2017-09-07T15:29:41.392Z,26.42
2017-09-07T15:30:51.796Z,26.38
2017-09-07T15:32:03.616Z,26.26
2017-09-07T15:33:14.011Z,26.15
2017-09-07T15:34:24.396Z,26.06
2017-09-07T15:35:34.763Z,25.96
2017-09-07T15:36:45.166Z,25.81
2017-09-07T15:37:55.522Z,25.89
2017-09-07T15:39:05.893Z,25.74
2017-09-07T15:40:16.253Z,25.59
2017-09-07T15:41:26.626Z,25.63
2017-09-07T15:42:37.008Z,25.63
2017-09-07T15:43:47.385Z,25.56
2017-09-07T15:44:58.192Z,25.47
2017-09-07T15:46:08.571Z,25.41
2017-09-07T15:47:18.937Z,25.17
2017-09-07T15:48:29.046Z,24.96
2017-09-07T15:49:39.399Z,24.93